Time;durP1;ratioP1;P1;durP2;ratioP2;P2;SDS_P1;SDS_P2;PMS_P1;PMS_P2;Temp;Humidity;BMP_temperature;BMP_pressure;BME280_temperature;BME280_humidity;BME280_pressure;Samples;Min_cycle;Max_cycle;Signal;HPM_P1;HPM_P2
2023/04/29 00:02:03;;;;;;;;;5.33;5.33;;;;;19.18;90.91;101242.81;5079857;28;46838;-76
2023/04/29 00:04:29;;;;;;;;;5.33;5.33;;;;;19.11;91.54;101241.22;5079374;28;52753;-77
2023/04/29 00:06:54;;;;;;;;;7.67;6.00;;;;;19.02;91.89;101244.16;5078496;28;45619;-77
2023/04/29 00:09:20;;;;;;;;;4.33;4.33;;;;;19.00;92.54;101240.84;5079800;27;45310;-77
2023/04/29 00:11:46;;;;;;;;;6.33;6.33;;;;;18.87;92.45;101231.00;5079700;27;46177;-77
2023/04/29 00:14:12;;;;;;;;;7.33;5.67;;;;;18.79;92.80;101234.78;5078139;28;45273;-77
2023/04/29 00:16:37;;;;;;;;;6.33;6.33;;;;;18.81;93.43;101237.25;5079861;28;45377;-77
2023/04/29 00:19:02;;;;;;;;;6.00;6.00;;;;;18.77;93.23;101231.47;5079236;28;52120;-77
2023/04/29 00:21:28;;;;;;;;;6.33;5.67;;;;;18.73;93.59;101221.34;5078116;28;47151;-77
2023/04/29 00:23:53;;;;;;;;;7.33;5.67;;;;;18.69;94.11;101220.97;5079572;28;45376;-77
2023/04/29 00:26:18;;;;;;;;;7.33;7.00;;;;;18.72;94.10;101228.63;5079822;27;45281;-77
2023/04/29 00:28:44;;;;;;;;;6.67;6.67;;;;;18.72;94.10;101220.53;5074305;28;46187;-76
2023/04/29 00:31:09;;;;;;;;;8.00;7.00;;;;;18.69;94.58;101223.66;5059092;28;45757;-76
2023/04/29 00:33:35;;;;;;;;;3.33;3.00;;;;;18.65;94.62;101223.25;5057885;28;45571;-77
2023/04/29 00:36:01;;;;;;;;;4.00;4.00;;;;;18.63;93.84;101213.75;5058877;28;45237;-76
2023/04/29 00:38:26;;;;;;;;;6.00;6.00;;;;;18.62;94.90;101223.69;5057862;28;46164;-77
2023/04/29 00:40:52;;;;;;;;;5.00;5.00;;;;;18.59;94.89;101216.09;5059045;28;46191;-77
2023/04/29 00:43:17;;;;;;;;;4.33;4.33;;;;;18.59;94.69;101217.94;5059607;28;45229;-77
2023/04/29 00:45:43;;;;;;;;;5.67;5.67;;;;;18.56;95.52;101219.19;5062491;28;53239;-77
2023/04/29 00:48:08;;;;;;;;;7.00;7.00;;;;;18.41;95.51;101189.91;5062612;28;45225;-77
2023/04/29 00:50:35;;;;;;;;;4.33;4.33;;;;;18.51;95.81;101214.47;5062167;28;46386;-76
2023/04/29 00:53:01;;;;;;;;;6.33;6.33;;;;;18.45;96.12;101201.88;5062438;28;45393;-77
2023/04/29 00:55:27;;;;;;;;;5.00;5.00;;;;;18.42;95.97;101199.59;5061139;28;45366;-77
2023/04/29 00:57:52;;;;;;;;;6.67;6.67;;;;;18.43;96.48;101206.63;5062512;28;45366;-76
2023/04/29 01:00:18;;;;;;;;;6.67;6.33;;;;;18.45;96.18;101204.56;5062238;28;45939;-76
2023/04/29 01:02:45;;;;;;;;;6.67;5.33;;;;;18.52;95.85;101210.72;5062408;28;45421;-76
2023/04/29 01:05:10;;;;;;;;;7.00;6.67;;;;;18.50;96.44;101220.88;5062376;28;45248;-76
2023/04/29 01:07:57;;;;;;;;;5.00;5.00;;;;;18.45;95.62;101199.19;5060983;28;46104;-76
2023/04/29 01:10:27;;;;;;;;;6.33;6.33;;;;;18.44;96.33;101205.59;5060821;28;47425;-77
2023/04/29 01:13:10;;;;;;;;;4.67;4.67;;;;;18.43;96.58;101209.31;5062162;28;45486;-76
2023/04/29 01:15:48;;;;;;;;;8.00;8.00;;;;;18.39;96.34;101203.56;5060825;28;45372;-76
2023/04/29 01:18:22;;;;;;;;;7.00;7.00;;;;;18.35;96.78;101196.94;5060506;28;47121;-77
2023/04/29 01:20:47;;;;;;;;;7.67;7.00;;;;;18.38;95.99;101211.84;5061794;28;45481;-77
2023/04/29 01:23:13;;;;;;;;;7.00;7.00;;;;;18.33;95.44;101212.50;5062073;28;45432;-77
2023/04/29 01:25:39;;;;;;;;;5.67;5.67;;;;;18.26;95.60;101206.31;5060845;28;45423;-77
2023/04/29 01:28:17;;;;;;;;;7.67;7.67;;;;;18.29;95.50;101224.72;5061958;28;46219;-77
2023/04/29 01:30:52;;;;;;;;;6.67;6.67;;;;;18.26;94.89;101217.88;5040265;28;47272;-77
2023/04/29 01:33:52;;;;;;;;;6.00;6.00;;;;;18.29;94.85;101213.97;5040175;28;46012;-77
2023/04/29 01:36:50;;;;;;;;;7.67;7.33;;;;;18.22;95.19;101222.06;5058975;28;45492;-76
2023/04/29 01:39:41;;;;;;;;;6.67;6.33;;;;;18.10;94.47;101213.81;5041666;28;45214;-77
2023/04/29 01:42:20;;;;;;;;;9.67;9.00;;;;;18.13;94.78;101220.63;5040050;28;47444;-76
2023/04/29 01:44:48;;;;;;;;;8.67;8.67;;;;;18.06;94.46;101212.56;5041540;28;45205;-77
2023/04/29 01:47:14;;;;;;;;;8.33;8.33;;;;;18.09;94.93;101219.38;5040124;28;45368;-77
2023/04/29 01:49:39;;;;;;;;;8.33;8.33;;;;;18.03;94.21;101226.44;5041295;28;45340;-77
2023/04/29 01:52:06;;;;;;;;;7.33;7.33;;;;;17.92;94.03;101211.78;5041302;28;46042;-77
2023/04/29 01:54:35;;;;;;;;;7.00;7.00;;;;;17.95;94.00;101214.06;5039679;28;45344;-77
2023/04/29 01:57:01;;;;;;;;;8.67;7.67;;;;;17.86;94.45;101202.72;5039574;28;45316;-77
2023/04/29 01:59:26;;;;;;;;;10.67;10.33;;;;;17.88;94.33;101214.09;5041361;28;45477;-77
2023/04/29 02:01:52;;;;;;;;;8.67;8.67;;;;;18.31;93.08;101213.75;5039380;28;57133;-77
2023/04/29 02:04:17;;;;;;;;;11.00;11.00;;;;;18.32;91.81;101201.94;5041010;28;45174;-76
2023/04/29 02:06:43;;;;;;;;;10.00;10.00;;;;;18.29;91.20;101201.31;5039931;28;45285;-77
2023/04/29 02:09:08;;;;;;;;;10.33;10.33;;;;;18.34;91.01;101216.81;5041358;28;45280;-77
2023/04/29 02:11:33;;;;;;;;;9.00;8.33;;;;;18.19;91.08;101203.66;5040933;28;45272;-77
2023/04/29 02:13:59;;;;;;;;;8.00;8.00;;;;;17.88;91.73;101207.88;5041238;28;45345;-77
2023/04/29 02:16:24;;;;;;;;;9.33;9.00;;;;;17.77;93.05;101212.88;5041223;28;45315;-77
2023/04/29 02:18:49;;;;;;;;;9.00;9.00;;;;;17.63;93.05;101198.63;5041133;28;45199;-77
2023/04/29 02:21:15;;;;;;;;;8.33;8.33;;;;;17.64;94.06;101213.75;5039390;28;47247;-77
2023/04/29 02:23:40;;;;;;;;;8.00;8.00;;;;;17.55;94.47;101212.31;5040948;28;45432;-77
2023/04/29 02:26:06;;;;;;;;;8.00;8.00;;;;;17.51;94.37;101211.09;5041149;28;45560;-77
2023/04/29 02:28:33;;;;;;;;;9.00;8.67;;;;;17.52;94.22;101208.19;5043330;28;46452;-77
2023/04/29 02:30:58;;;;;;;;;5.67;5.67;;;;;17.45;94.90;101203.84;5081168;27;46540;-77
2023/04/29 02:33:23;;;;;;;;;9.33;9.00;;;;;17.42;95.04;101202.41;5079693;28;45778;-76
2023/04/29 02:35:49;;;;;;;;;10.33;9.67;;;;;17.48;95.31;101223.06;5080782;27;45533;-77
2023/04/29 02:38:14;;;;;;;;;13.00;11.67;;;;;17.44;95.88;101220.97;5081164;27;45305;-77
2023/04/29 02:40:43;;;;;;;;;7.00;7.00;;;;;17.43;95.95;101220.19;5081055;27;45322;-76
2023/04/29 02:43:09;;;;;;;;;14.33;14.00;;;;;17.37;96.39;101210.25;5081220;27;45289;-77
2023/04/29 02:45:35;;;;;;;;;12.67;12.67;;;;;17.64;95.59;101218.28;5079764;28;45290;-77
2023/04/29 02:48:01;;;;;;;;;11.33;11.33;;;;;17.67;94.63;101217.88;5080841;27;45321;-76
2023/04/29 02:50:27;;;;;;;;;11.33;11.33;;;;;17.67;94.76;101207.94;5080465;27;45405;-77
2023/04/29 02:52:52;;;;;;;;;9.67;8.33;;;;;17.67;94.83;101205.25;5080999;27;45369;-76
2023/04/29 02:55:18;;;;;;;;;11.00;10.33;;;;;17.69;95.13;101214.97;5079655;28;45393;-76
2023/04/29 02:57:43;;;;;;;;;10.33;10.33;;;;;17.66;95.19;101206.28;5080829;27;45345;-77
2023/04/29 03:00:09;;;;;;;;;7.00;7.00;;;;;17.74;94.44;101213.28;5080431;28;53928;-77
2023/04/29 03:02:36;;;;;;;;;8.00;8.00;;;;;17.63;94.73;101214.75;5080925;27;45329;-77
2023/04/29 03:05:02;;;;;;;;;7.00;7.00;;;;;17.70;94.52;101219.31;5080736;27;45314;-77
2023/04/29 03:07:28;;;;;;;;;8.00;6.67;;;;;17.68;93.36;101219.50;5080233;27;45360;-77
2023/04/29 03:09:54;;;;;;;;;6.00;6.00;;;;;17.60;92.93;101217.88;5080528;27;46087;-76
2023/04/29 03:12:20;;;;;;;;;7.00;7.00;;;;;17.54;92.81;101214.16;5080657;27;45322;-77
2023/04/29 03:14:46;;;;;;;;;7.33;7.33;;;;;17.57;93.11;101222.84;5080782;27;45316;-77
2023/04/29 03:17:11;;;;;;;;;7.00;7.00;;;;;17.49;92.89;101210.47;5080508;27;45510;-76
2023/04/29 03:19:37;;;;;;;;;7.67;7.00;;;;;17.48;92.56;101214.19;5078984;28;47386;-77
2023/04/29 03:22:02;;;;;;;;;8.00;8.00;;;;;17.39;92.69;101214.38;5080343;27;45298;-76
2023/04/29 03:24:27;;;;;;;;;7.00;7.00;;;;;17.31;93.29;101222.66;5080631;28;45311;-76
2023/04/29 03:26:53;;;;;;;;;8.00;8.00;;;;;17.36;93.23;101230.91;5080488;27;45374;-77
2023/04/29 03:29:19;;;;;;;;;8.00;8.00;;;;;17.29;93.98;101220.19;5071600;27;45936;-76
2023/04/29 03:31:44;;;;;;;;;7.67;7.67;;;;;17.37;94.38;101223.69;5059595;28;45359;-77
2023/04/29 03:34:10;;;;;;;;;7.67;7.67;;;;;17.48;94.67;101233.78;5059722;28;45395;-77
2023/04/29 03:36:35;;;;;;;;;8.00;8.00;;;;;17.51;95.57;101233.38;5059716;28;45500;-77
2023/04/29 03:39:01;;;;;;;;;10.00;7.33;;;;;17.57;95.80;101230.91;5060008;28;45216;-77
2023/04/29 03:41:26;;;;;;;;;7.33;7.33;;;;;17.61;96.98;101229.44;5059928;28;45239;-76
2023/04/29 03:43:51;;;;;;;;;12.33;10.33;;;;;17.72;97.13;101236.84;5057813;28;45342;-77
2023/04/29 03:46:17;;;;;;;;;13.00;12.00;;;;;17.71;97.23;101235.22;5058107;28;47042;-77
2023/04/29 03:48:42;;;;;;;;;16.33;15.00;;;;;17.84;96.28;101239.72;5058431;28;47036;-77
2023/04/29 03:51:08;;;;;;;;;13.67;12.00;;;;;17.89;97.03;101248.00;5059479;28;45165;-77
2023/04/29 03:53:35;;;;;;;;;15.33;13.67;;;;;17.99;96.50;101244.84;5059788;28;45341;-77
2023/04/29 03:56:00;;;;;;;;;11.67;11.00;;;;;17.96;96.17;101239.91;5059674;28;45412;-76
2023/04/29 03:58:26;;;;;;;;;13.67;12.67;;;;;18.03;97.60;101250.66;5059234;28;53217;-77
2023/04/29 04:00:51;;;;;;;;;15.33;15.33;;;;;18.01;96.56;101239.28;5059598;28;45379;-77
2023/04/29 04:03:16;;;;;;;;;16.67;16.67;;;;;17.98;96.07;101229.78;5059699;28;45323;-77
2023/04/29 04:05:41;;;;;;;;;14.67;14.67;;;;;17.99;97.82;101230.59;5057691;28;46390;-77
2023/04/29 04:08:07;;;;;;;;;19.00;19.00;;;;;18.03;97.63;101237.19;5059352;28;47666;-77
2023/04/29 04:10:32;;;;;;;;;23.00;21.00;;;;;18.00;96.72;101243.84;5059523;28;45458;-77
2023/04/29 04:12:57;;;;;;;;;18.00;16.00;;;;;18.09;97.50;101248.97;5058118;28;46422;-76
2023/04/29 04:15:23;;;;;;;;;17.67;17.67;;;;;18.09;97.29;101260.56;5058060;28;46171;-77
2023/04/29 04:17:48;;;;;;;;;16.33;15.67;;;;;18.08;97.41;101248.13;5057997;28;47374;-77
2023/04/29 04:20:14;;;;;;;;;16.33;15.00;;;;;18.09;98.51;101248.97;5062090;28;52323;-77
2023/04/29 04:22:40;;;;;;;;;16.67;16.33;;;;;18.11;99.14;101245.06;5063155;28;45391;-76
2023/04/29 04:25:06;;;;;;;;;19.33;19.33;;;;;18.17;97.85;101259.53;5061401;28;46456;-76
2023/04/29 04:27:31;;;;;;;;;23.00;21.33;;;;;18.11;97.27;101245.06;5062837;28;47226;-77
2023/04/29 04:29:56;;;;;;;;;18.00;18.00;;;;;18.09;97.58;101251.66;5076614;28;45211;-77
2023/04/29 04:32:22;;;;;;;;;19.33;19.33;;;;;18.12;96.83;101256.66;5081606;28;46754;-77
2023/04/29 04:34:48;;;;;;;;;22.00;21.00;;;;;18.15;97.32;101272.38;5081496;28;47090;-77
2023/04/29 04:37:13;;;;;;;;;22.67;22.00;;;;;18.07;98.62;101270.69;5082526;27;46114;-77
2023/04/29 04:39:39;;;;;;;;;18.00;18.00;;;;;18.07;98.06;101273.38;5081836;28;45223;-77
2023/04/29 04:42:04;;;;;;;;;21.00;21.00;;;;;18.10;97.29;101274.81;5083089;27;45417;-77
2023/04/29 04:44:30;;;;;;;;;21.00;20.67;;;;;18.09;98.25;101281.25;5083066;28;45271;-77
2023/04/29 04:46:55;;;;;;;;;25.33;22.67;;;;;18.05;97.35;101276.28;5082842;27;45443;-76
2023/04/29 04:49:23;;;;;;;;;22.00;21.00;;;;;18.10;98.33;101294.50;5082863;28;45386;-76
2023/04/29 04:51:49;;;;;;;;;21.00;20.00;;;;;18.06;97.97;101282.50;5081519;28;45298;-77
2023/04/29 04:54:14;;;;;;;;;21.33;20.00;;;;;18.02;99.00;101298.22;5082589;28;45416;-77
2023/04/29 04:56:40;;;;;;;;;20.00;19.33;;;;;17.99;98.67;101297.84;5082730;27;45256;-77
2023/04/29 04:59:05;;;;;;;;;21.67;21.00;;;;;17.92;99.47;101292.44;5082629;27;45929;-76
2023/04/29 05:01:30;;;;;;;;;22.67;21.33;;;;;17.98;99.54;101305.06;5082986;27;45285;-77
2023/04/29 05:03:56;;;;;;;;;24.00;24.00;;;;;17.88;99.22;101301.97;5082439;27;45282;-77
2023/04/29 05:06:21;;;;;;;;;21.00;20.33;;;;;17.86;100.00;101301.34;5082443;27;45267;-77
2023/04/29 05:08:47;;;;;;;;;19.67;18.67;;;;;17.83;100.00;101310.66;5082593;27;45367;-77
2023/04/29 05:11:17;;;;;;;;;25.33;23.67;;;;;17.89;100.00;101311.69;5080628;28;51716;-77
2023/04/29 05:13:43;;;;;;;;;21.00;19.67;;;;;17.82;99.95;101309.03;5082465;27;45556;-76
2023/04/29 05:16:08;;;;;;;;;21.33;21.00;;;;;17.84;100.00;101320.38;5080905;28;47363;-76
2023/04/29 05:18:33;;;;;;;;;20.00;19.67;;;;;17.87;100.00;101319.16;5081162;28;45297;-76
2023/04/29 05:20:59;;;;;;;;;24.67;24.67;;;;;17.88;100.00;101327.03;5082226;27;45498;-76
2023/04/29 05:23:24;;;;;;;;;21.33;21.33;;;;;17.86;100.00;101322.88;5082465;27;45301;-76
2023/04/29 05:25:49;;;;;;;;;22.67;21.67;;;;;17.96;100.00;101336.69;5082334;27;46031;-76
2023/04/29 05:28:15;;;;;;;;;22.67;21.00;;;;;18.00;100.00;101340.66;5080432;28;62212;-76
2023/04/29 05:30:40;;;;;;;;;24.00;24.00;;;;;18.07;100.00;101342.50;5062013;27;45355;-77
2023/04/29 05:33:05;;;;;;;;;23.00;23.00;;;;;18.07;100.00;101339.81;5060530;28;47282;-76
2023/04/29 05:35:31;;;;;;;;;23.33;23.00;;;;;18.14;100.00;101348.72;5060119;28;48061;-76
2023/04/29 05:37:56;;;;;;;;;20.00;19.33;;;;;18.12;100.00;101353.47;5061854;28;45239;-76
2023/04/29 05:40:22;;;;;;;;;23.00;22.00;;;;;18.07;100.00;101355.94;5060655;28;45242;-76
2023/04/29 05:42:48;;;;;;;;;18.67;17.67;;;;;17.98;100.00;101350.78;5061848;28;45329;-77
2023/04/29 05:45:13;;;;;;;;;23.00;22.00;;;;;18.05;100.00;101359.66;5061767;28;45935;-76
2023/04/29 05:47:38;;;;;;;;;19.67;17.67;;;;;18.11;100.00;101366.09;5060209;28;45824;-76
2023/04/29 05:50:05;;;;;;;;;20.67;20.33;;;;;18.12;100.00;101365.06;5061457;28;45364;-76
2023/04/29 05:52:30;;;;;;;;;19.00;18.00;;;;;18.08;100.00;101357.59;5061370;28;45319;-75
2023/04/29 05:54:55;;;;;;;;;21.67;19.00;;;;;18.03;100.00;101356.38;5061413;28;45442;-76
2023/04/29 05:57:20;;;;;;;;;21.67;20.67;;;;;18.14;100.00;101367.56;5061626;28;45463;-76
2023/04/29 05:59:46;;;;;;;;;24.67;22.67;;;;;18.09;100.00;101372.69;5060450;28;45419;-77
2023/04/29 06:02:11;;;;;;;;;17.67;17.67;;;;;18.05;100.00;101380.38;5061348;28;45316;-76
2023/04/29 06:04:36;;;;;;;;;21.00;20.33;;;;;18.08;100.00;101395.25;5061115;28;45448;-77
2023/04/29 06:07:03;;;;;;;;;19.67;18.67;;;;;18.10;100.00;101387.78;5061226;28;45413;-76
2023/04/29 06:09:29;;;;;;;;;21.33;20.00;;;;;18.14;100.00;101381.81;5061588;28;45314;-76
2023/04/29 06:11:55;;;;;;;;;25.33;24.00;;;;;18.20;100.00;101388.25;5061190;28;45331;-76
2023/04/29 06:14:20;;;;;;;;;22.67;22.33;;;;;18.21;100.00;101395.25;5059805;28;47441;-76
2023/04/29 06:16:46;;;;;;;;;22.33;21.00;;;;;18.16;100.00;101382.44;5061263;28;45145;-76
2023/04/29 06:19:11;;;;;;;;;26.67;25.00;;;;;18.25;100.00;101398.34;5060872;28;45248;-77
2023/04/29 06:21:37;;;;;;;;;26.00;23.00;;;;;18.12;100.00;101391.97;5059635;28;45253;-76
2023/04/29 06:24:02;;;;;;;;;23.67;22.00;;;;;18.15;100.00;101401.47;5059316;28;46916;-76
2023/04/29 06:26:28;;;;;;;;;27.67;26.67;;;;;18.12;100.00;101388.44;5060818;28;45260;-76
2023/04/29 06:28:53;;;;;;;;;27.33;22.00;;;;;18.26;100.00;101398.13;5065985;28;45406;-76
2023/04/29 06:31:19;;;;;;;;;22.67;21.67;;;;;18.25;100.00;101409.09;5080841;27;45507;-76
2023/04/29 06:33:45;;;;;;;;;27.33;23.67;;;;;18.37;100.00;101420.06;5079123;28;52224;-76
2023/04/29 06:36:11;;;;;;;;;26.67;24.00;;;;;18.39;100.00;101407.22;5080654;27;45452;-76
2023/04/29 06:38:36;;;;;;;;;26.00;23.67;;;;;18.40;100.00;101404.31;5079687;28;45402;-76
2023/04/29 06:41:02;;;;;;;;;27.00;26.33;;;;;18.47;100.00;101415.06;5063217;28;46891;-76
2023/04/29 06:43:27;;;;;;;;;26.00;25.33;;;;;18.44;100.00;101404.75;5060558;28;46195;-76
2023/04/29 06:45:52;;;;;;;;;30.33;28.33;;;;;18.52;100.00;101407.19;5060693;28;45344;-77
2023/04/29 06:48:18;;;;;;;;;30.67;30.33;;;;;18.54;100.00;101409.69;5058947;28;45342;-76
2023/04/29 06:50:57;;;;;;;;;30.33;29.00;;;;;18.52;100.00;101411.75;5060095;28;45427;-76
2023/04/29 06:53:23;;;;;;;;;30.67;29.33;;;;;18.58;100.00;101410.09;5060613;28;46026;-76
2023/04/29 06:55:49;;;;;;;;;32.67;31.00;;;;;18.60;100.00;101416.06;5060740;28;45287;-76
2023/04/29 06:58:15;;;;;;;;;31.00;29.00;;;;;18.64;100.00;101425.38;5060895;28;45227;-76
2023/04/29 07:00:44;;;;;;;;;29.00;26.67;;;;;18.55;100.00;101416.69;5060154;28;45345;-76
2023/04/29 07:03:10;;;;;;;;;35.00;31.67;;;;;18.65;100.00;101422.47;5060282;28;46282;-76
2023/04/29 07:05:36;;;;;;;;;27.33;27.00;;;;;18.74;100.00;101423.06;5058795;28;45881;-76
2023/04/29 07:08:02;;;;;;;;;25.67;22.33;;;;;18.64;99.96;101417.28;5060406;28;45347;-77
2023/04/29 07:10:27;;;;;;;;;33.00;31.33;;;;;18.72;99.76;101421.63;5058756;28;46046;-76
2023/04/29 07:12:52;;;;;;;;;37.00;32.00;;;;;18.77;99.75;101436.09;5060282;28;46178;-76
2023/04/29 07:15:18;;;;;;;;;34.67;31.00;;;;;18.77;100.00;101436.09;5060512;28;45282;-76
2023/04/29 07:17:43;;;;;;;;;35.00;31.67;;;;;18.73;99.55;101429.50;5058652;28;53995;-77
2023/04/29 07:20:09;;;;;;;;;31.67;29.33;;;;;18.77;99.86;101428.03;5059918;28;49090;-77
2023/04/29 07:22:34;;;;;;;;;36.33;32.00;;;;;18.81;100.00;101439.19;5060221;28;45278;-76
2023/04/29 07:25:00;;;;;;;;;37.67;31.00;;;;;18.80;100.00;101438.38;5058929;28;45378;-76
2023/04/29 07:27:25;;;;;;;;;35.67;32.00;;;;;18.87;99.89;101440.22;5060065;28;45308;-76
2023/04/29 07:29:50;;;;;;;;;36.33;31.00;;;;;18.78;99.34;101440.47;5073019;28;45559;-76
2023/04/29 07:32:16;;;;;;;;;32.33;29.33;;;;;18.80;99.95;101449.13;5078702;28;47314;-76
2023/04/29 07:34:41;;;;;;;;;37.67;32.67;;;;;18.82;99.77;101448.94;5080023;28;45304;-76
2023/04/29 07:37:07;;;;;;;;;36.33;32.00;;;;;18.84;99.28;101456.78;5061057;27;45477;-76
2023/04/29 07:39:34;;;;;;;;;40.67;35.00;;;;;18.85;99.90;101456.59;5060182;28;45338;-76
2023/04/29 07:41:59;;;;;;;;;40.33;32.67;;;;;18.91;99.75;101462.97;5059960;28;45397;-77
2023/04/29 07:44:25;;;;;;;;;35.33;31.67;;;;;18.90;99.39;101455.94;5059856;28;45306;-76
2023/04/29 07:46:50;;;;;;;;;39.33;33.00;;;;;18.93;99.83;101459.06;5059827;28;45492;-76
2023/04/29 07:49:16;;;;;;;;;37.00;33.00;;;;;18.97;99.79;101451.34;5059159;28;54845;-76
2023/04/29 07:51:41;;;;;;;;;35.00;32.33;;;;;18.82;100.00;101461.59;5059380;28;45275;-76
2023/04/29 07:54:07;;;;;;;;;37.33;31.67;;;;;19.00;100.00;101455.47;5058597;28;45521;-76
2023/04/29 07:56:32;;;;;;;;;35.67;31.67;;;;;19.10;99.69;101455.91;5059760;28;45469;-77
2023/04/29 07:59:01;;;;;;;;;35.33;32.00;;;;;19.14;99.57;101451.75;5059641;28;45371;-75
2023/04/29 08:01:27;;;;;;;;;39.00;32.00;;;;;19.14;100.00;101456.28;5059427;28;45422;-76
2023/04/29 08:03:53;;;;;;;;;36.67;32.00;;;;;19.18;100.00;101452.13;5057826;28;45759;-75
2023/04/29 08:06:20;;;;;;;;;33.67;30.00;;;;;19.24;100.00;101455.84;5059550;28;45339;-76
2023/04/29 08:08:46;;;;;;;;;39.33;33.00;;;;;19.29;99.97;101450.63;5058169;28;46155;-75
2023/04/29 08:11:16;;;;;;;;;38.00;31.67;;;;;19.39;100.00;101456.38;5057899;28;47342;-75
2023/04/29 08:13:41;;;;;;;;;41.00;34.00;;;;;19.42;100.00;101461.34;5058030;28;45413;-76
2023/04/29 08:16:08;;;;;;;;;40.67;34.00;;;;;19.42;98.89;101460.50;5059471;28;45342;-76
2023/04/29 08:18:33;;;;;;;;;34.00;31.67;;;;;19.42;99.33;101450.56;5059318;28;45514;-75
2023/04/29 08:20:59;;;;;;;;;34.67;32.00;;;;;19.63;99.08;101458.53;5052677;28;45838;-76
2023/04/29 08:23:24;;;;;;;;;39.00;33.00;;;;;19.73;97.89;101458.03;5056302;28;45567;-76
2023/04/29 08:25:51;;;;;;;;;34.33;31.00;;;;;19.73;98.08;101453.47;5057198;28;45327;-76
2023/04/29 08:28:16;;;;;;;;;42.67;35.00;;;;;19.85;97.09;101466.25;5040593;28;46958;-75
2023/04/29 08:30:41;;;;;;;;;37.00;33.67;;;;;19.85;97.60;101460.84;5078335;28;45978;-76
2023/04/29 08:33:07;;;;;;;;;36.00;32.33;;;;;19.79;97.38;101460.66;5078788;27;45632;-76
2023/04/29 08:35:36;;;;;;;;;41.67;34.67;;;;;19.75;97.16;101455.97;5077641;27;45399;-76
2023/04/29 08:38:03;;;;;;;;;27.33;25.33;;;;;19.74;96.81;101456.97;5078913;27;45379;-76
2023/04/29 08:40:29;;;;;;;;;36.67;31.67;;;;;19.78;97.18;101467.13;5041656;28;47235;-76
2023/04/29 08:42:56;;;;;;;;;34.00;32.00;;;;;19.90;96.76;101464.53;5036862;28;45428;-76
2023/04/29 08:45:26;;;;;;;;;31.00;30.00;;;;;19.99;96.44;101467.78;5037278;28;45661;-76
2023/04/29 08:47:51;;;;;;;;;34.67;31.67;;;;;20.10;97.27;101468.97;5036676;28;46417;-76
2023/04/29 08:50:17;;;;;;;;;39.00;34.00;;;;;20.23;96.86;101470.72;5037608;28;45302;-76
2023/04/29 08:52:42;;;;;;;;;36.67;30.00;;;;;20.26;96.08;101458.69;5037003;28;45703;-77
2023/04/29 08:55:08;;;;;;;;;35.67;32.67;;;;;20.33;95.60;101478.34;5038362;28;46673;-76
2023/04/29 08:57:38;;;;;;;;;39.00;34.00;;;;;20.34;95.76;101468.34;5045678;28;46120;-77
2023/04/29 09:00:07;;;;;;;;;36.67;32.00;;;;;20.25;95.15;101467.81;5055879;28;48199;-77
2023/04/29 09:02:37;;;;;;;;;38.00;34.00;;;;;20.23;94.77;101467.22;5044358;28;45529;-77
2023/04/29 09:05:10;;;;;;;;;36.67;32.33;;;;;20.20;94.57;101465.75;5040101;28;45331;-76
2023/04/29 09:07:36;;;;;;;;;40.00;32.67;;;;;20.21;94.64;101475.53;5040379;28;45418;-76
2023/04/29 09:10:03;;;;;;;;;43.00;34.67;;;;;20.14;94.16;101478.28;5041592;28;45360;-78
2023/04/29 09:12:29;;;;;;;;;43.00;34.67;;;;;20.01;94.39;101468.44;5041569;28;45341;-78
2023/04/29 09:14:55;;;;;;;;;36.33;32.00;;;;;19.99;94.82;101475.88;5042155;28;45412;-77
2023/04/29 09:17:47;;;;;;;;;36.00;33.00;;;;;20.09;94.08;101478.13;5042103;28;45373;-77
2023/04/29 09:20:21;;;;;;;;;45.00;36.67;;;;;20.08;93.82;101484.56;5040095;28;46080;-77
2023/04/29 09:22:47;;;;;;;;;38.33;34.00;;;;;20.11;94.37;101496.78;5041765;28;45347;-77
2023/04/29 09:25:13;;;;;;;;;42.00;35.67;;;;;20.13;94.12;101492.00;5041894;28;45347;-77
2023/04/29 09:27:38;;;;;;;;;41.00;33.00;;;;;20.18;94.50;101492.97;5041746;28;45360;-77
2023/04/29 09:30:04;;;;;;;;;37.00;33.00;;;;;20.22;93.49;101485.28;5071074;28;51969;-77
2023/04/29 09:32:29;;;;;;;;;41.67;34.00;;;;;20.38;94.00;101496.56;5080595;28;45501;-77
2023/04/29 09:34:55;;;;;;;;;38.67;34.33;;;;;20.53;94.29;101488.94;5082090;27;45276;-77
2023/04/29 09:37:26;;;;;;;;;40.00;34.00;;;;;20.74;93.49;101492.25;5081640;27;45444;-77
2023/04/29 09:39:52;;;;;;;;;34.33;30.67;;;;;20.84;92.14;101485.50;5082029;28;45957;-77
2023/04/29 09:42:18;;;;;;;;;38.33;33.33;;;;;20.89;91.96;101472.94;5080105;28;45350;-77
2023/04/29 09:44:44;;;;;;;;;45.33;37.67;;;;;21.03;90.57;101487.16;5081928;27;45265;-77
2023/04/29 09:47:10;;;;;;;;;44.00;36.00;;;;;20.93;90.13;101478.78;5081938;27;45307;-78
2023/04/29 09:49:39;;;;;;;;;42.33;34.33;;;;;20.86;89.61;101486.09;5080366;28;47401;-77
2023/04/29 09:52:07;;;;;;;;;38.33;32.67;;;;;20.84;89.66;101504.41;5081615;28;45393;-77
2023/04/29 09:54:35;;;;;;;;;44.67;37.33;;;;;20.84;89.46;101501.69;5082017;27;45209;-76
2023/04/29 09:57:03;;;;;;;;;44.00;36.67;;;;;20.85;89.71;101497.94;5080217;28;46760;-76
2023/04/29 09:59:29;;;;;;;;;42.00;35.67;;;;;20.85;89.55;101495.25;5081631;27;45353;-77
2023/04/29 10:01:56;;;;;;;;;45.33;38.00;;;;;20.84;89.70;101497.13;5080256;28;45326;-77
2023/04/29 10:04:23;;;;;;;;;34.33;30.67;;;;;20.85;88.67;101509.59;5081618;28;45356;-77
2023/04/29 10:06:53;;;;;;;;;45.00;37.67;;;;;20.85;88.62;101506.03;5080067;28;47304;-78
2023/04/29 10:09:21;;;;;;;;;47.67;37.33;;;;;20.78;88.37;101501.56;5081362;27;46356;-77
2023/04/29 10:11:49;;;;;;;;;47.33;40.00;;;;;20.77;87.77;101502.59;5081606;27;45403;-77
2023/04/29 10:14:19;;;;;;;;;48.00;37.33;;;;;20.78;87.39;101506.97;5081720;28;45321;-77
2023/04/29 10:16:47;;;;;;;;;43.00;35.67;;;;;20.81;86.52;101498.38;5080409;27;45250;-78
2023/04/29 10:19:34;;;;;;;;;37.67;31.00;;;;;20.84;84.49;101501.69;5081068;27;46120;-78
2023/04/29 10:22:06;;;;;;;;;39.67;35.00;;;;;20.88;83.20;101508.28;5079906;28;45798;-77
2023/04/29 10:24:36;;;;;;;;;43.00;34.00;;;;;20.93;83.90;101501.22;5081539;27;45326;-78
2023/04/29 10:27:05;;;;;;;;;37.00;31.33;;;;;20.96;83.13;101497.25;5081282;27;45311;-77
2023/04/29 10:29:35;;;;;;;;;47.00;37.33;;;;;21.00;84.34;101492.19;5070654;27;45653;-79
2023/04/29 10:32:03;;;;;;;;;35.67;32.00;;;;;20.96;83.40;101491.84;5059229;28;46118;-78
2023/04/29 10:34:30;;;;;;;;;41.33;33.67;;;;;21.04;83.47;101512.31;5060592;28;45290;-78
2023/04/29 10:36:57;;;;;;;;;46.67;38.00;;;;;20.95;82.42;101492.88;5060427;28;45467;-78
2023/04/29 10:39:49;;;;;;;;;40.67;34.00;;;;;21.06;82.43;101502.94;5059552;28;46178;-78
2023/04/29 10:42:41;;;;;;;;;46.33;37.00;;;;;21.12;81.91;101503.91;5056961;28;45599;-78
2023/04/29 10:45:27;;;;;;;;;37.67;33.00;;;;;21.29;81.63;101516.78;5060734;28;45349;-76
2023/04/29 10:48:01;;;;;;;;;39.33;34.00;;;;;21.39;81.76;101508.13;5059192;28;46570;-77
2023/04/29 10:50:47;;;;;;;;;38.67;33.00;;;;;21.46;81.33;101516.16;5060246;28;45334;-78
2023/04/29 10:53:14;;;;;;;;;43.00;35.67;;;;;21.46;81.15;101514.25;5059595;28;45346;-77
2023/04/29 10:55:39;;;;;;;;;41.33;34.33;;;;;;;;5060763;28;45259;-77
2023/04/29 10:58:25;;;;;;;;;38.33;32.67;;;;;21.46;80.41;101516.16;5059027;28;46119;-77
2023/04/29 11:00:52;;;;;;;;;34.67;31.33;;;;;21.42;79.86;101518.50;5075810;28;47626;-77
2023/04/29 11:03:54;;;;;;;;;38.00;33.67;;;;;21.53;79.72;101516.88;5060443;28;45406;-78
2023/04/29 11:06:22;;;;;;;;;43.67;34.00;;;;;21.49;78.94;101515.72;5075902;28;45429;-77
2023/04/29 11:08:59;;;;;;;;;37.00;31.00;;;;;21.56;78.19;101517.28;5058871;28;46494;-78
2023/04/29 11:11:25;;;;;;;;;39.33;33.33;;;;;21.93;77.85;101510.09;5058049;28;48006;-77
2023/04/29 11:13:51;;;;;;;;;37.00;33.00;;;;;21.77;77.86;101517.00;5046378;28;45336;-77